6A4 weather

Johnson County Airport
Mountain City, Tennessee, United States

Public forecast

Using degrees Fahrenheit for public forecast. Weather courtesy of forecast.io.

METAR (pilot weather report)

Closest report is Elizabethton Municipal Airport, 17.1 nm (31.6 km) W. Retrieved 2019/07/21 22:35 UTC (0 seconds ago):

K0A9 212235Z AUTO VRB05KT 10SM FEW043 SCT050 31/22 A3000 RMK AO2

TAF (pilot weather forecast)

Closest forecast is Tri-Cities Regional TN/VA Airport, 28.3 nm (52.5 km) W. Retrieved 2019/07/21 18:39 UTC (4 hours ago):

TAF KTRI 211736Z 2118/2218 25006KT P6SM VCTS BKN035CB FM220200 VRB03KT P6SM BKN040 FM220600 00000KT 4SM BR SCT060 FM220800 00000KT 2SM BR BKN024 FM221000 00000KT 1/4SM FG OVC002 FM221200 23004KT P6SM VCSH BKN025 PROB30 2215/2218 4SM -TSRA OVC015CB